createdAt,value
2019-02-24T00:01:03.453Z,27.17
2019-02-24T00:05:09.161Z,27.57
2019-02-24T00:09:14.227Z,34.87
2019-02-24T00:13:19.383Z,28.17
2019-02-24T00:17:24.399Z,24.70
2019-02-24T00:21:30.391Z,23.93
2019-02-24T00:25:35.400Z,25.90
2019-02-24T00:29:40.419Z,25.27
2019-02-24T00:33:45.415Z,23.80
2019-02-24T00:37:50.427Z,23.57
2019-02-24T00:41:55.444Z,27.90
2019-02-24T00:46:00.459Z,27.93
2019-02-24T00:50:08.922Z,23.17
2019-02-24T00:54:14.034Z,28.30
2019-02-24T00:58:19.044Z,27.53
2019-02-24T01:02:24.055Z,26.53
2019-02-24T01:06:29.063Z,29.50
2019-02-24T01:10:34.084Z,26.57
2019-02-24T01:14:39.096Z,24.80
2019-02-24T01:18:44.091Z,24.57
2019-02-24T01:22:49.116Z,26.70
2019-02-24T01:26:54.189Z,29.50
2019-02-24T01:31:00.274Z,23.93
2019-02-24T01:35:06.934Z,22.90
2019-02-24T01:39:12.898Z,24.63
2019-02-24T01:43:17.955Z,30.83
2019-02-24T01:47:22.965Z,22.50
2019-02-24T01:51:28.040Z,23.43
2019-02-24T01:55:33.051Z,27.53
2019-02-24T01:59:38.159Z,23.90
2019-02-24T02:03:43.159Z,27.67
2019-02-24T02:07:48.175Z,24.53
2019-02-24T02:11:53.187Z,29.87
2019-02-24T02:15:58.202Z,25.10
2019-02-24T02:20:03.588Z,27.63
2019-02-24T02:24:08.687Z,23.67
2019-02-24T02:28:13.701Z,23.30
2019-02-24T02:32:18.728Z,23.23
2019-02-24T02:36:23.735Z,23.83
2019-02-24T02:40:28.791Z,27.00
2019-02-24T02:44:33.784Z,28.20
2019-02-24T02:48:38.802Z,28.57
2019-02-24T02:52:43.815Z,31.10
2019-02-24T02:56:48.885Z,23.43
2019-02-24T03:00:53.892Z,27.97
2019-02-24T03:04:58.904Z,28.60
2019-02-24T03:09:05.627Z,25.20
2019-02-24T03:13:12.260Z,28.20
2019-02-24T03:17:17.271Z,20.50
2019-02-24T03:21:22.285Z,21.73
2019-02-24T03:25:27.298Z,24.07
2019-02-24T03:29:32.293Z,24.90
2019-02-24T03:33:37.314Z,26.33
2019-02-24T03:37:42.353Z,25.33
2019-02-24T03:41:47.402Z,27.37
2019-02-24T03:45:52.377Z,28.10
2019-02-24T03:49:57.371Z,20.07
2019-02-24T03:54:02.383Z,25.40
2019-02-24T03:58:07.464Z,25.07
2019-02-24T04:02:12.557Z,25.33
2019-02-24T04:06:17.595Z,28.60
2019-02-24T04:10:22.609Z,24.07
2019-02-24T04:14:27.621Z,24.93
2019-02-24T04:18:32.636Z,22.83
2019-02-24T04:22:37.672Z,44.93
2019-02-24T04:26:42.683Z,32.47
2019-02-24T04:30:47.696Z,28.53
2019-02-24T04:34:52.704Z,28.53
2019-02-24T04:38:57.715Z,22.43
2019-02-24T04:43:02.733Z,26.67
2019-02-24T04:47:07.740Z,24.40
2019-02-24T04:51:12.756Z,27.07
2019-02-24T04:55:17.747Z,26.07
2019-02-24T04:59:22.881Z,27.10
2019-02-24T05:03:27.895Z,27.37
2019-02-24T05:07:32.912Z,24.80
2019-02-24T05:11:37.921Z,24.53
2019-02-24T05:15:43.405Z,24.17
2019-02-24T05:19:48.408Z,20.17
2019-02-24T05:23:53.424Z,21.67
2019-02-24T05:27:58.473Z,23.53
2019-02-24T05:32:03.574Z,20.37
2019-02-24T05:36:08.552Z,20.57
2019-02-24T05:40:13.667Z,21.20
2019-02-24T05:44:18.685Z,18.97
2019-02-24T05:48:23.697Z,21.00
2019-02-24T05:52:28.767Z,17.50
2019-02-24T05:56:33.776Z,20.63
2019-02-24T06:00:38.768Z,40.97
2019-02-24T06:04:43.796Z,22.50
2019-02-24T06:08:49.025Z,19.67
2019-02-24T06:12:53.984Z,18.80
2019-02-24T06:16:59.522Z,20.87
2019-02-24T06:21:04.640Z,20.33
2019-02-24T06:25:09.666Z,22.00
2019-02-24T06:29:14.983Z,26.90
2019-02-24T06:33:19.996Z,19.57
2019-02-24T06:37:25.007Z,21.27
2019-02-24T06:41:30.008Z,25.17
2019-02-24T06:45:35.095Z,19.27
2019-02-24T06:49:40.106Z,22.23
2019-02-24T06:53:46.206Z,21.60
2019-02-24T06:57:51.332Z,21.30
2019-02-24T07:01:56.314Z,18.60
2019-02-24T07:06:01.387Z,18.17
2019-02-24T07:10:07.539Z,17.17
2019-02-24T07:14:12.624Z,21.40
2019-02-24T07:18:17.700Z,24.10
2019-02-24T07:22:22.729Z,20.10
2019-02-24T07:26:28.070Z,18.07
2019-02-24T07:30:33.071Z,16.67
2019-02-24T07:34:38.208Z,15.70
2019-02-24T07:38:43.207Z,17.70
2019-02-24T07:42:48.214Z,17.77
2019-02-24T07:46:54.794Z,20.20
2019-02-24T07:50:59.810Z,21.23
2019-02-24T07:55:05.955Z,18.17
2019-02-24T07:59:10.956Z,21.00
2019-02-24T08:03:16.032Z,17.67
2019-02-24T08:07:21.015Z,19.50
2019-02-24T08:11:26.017Z,16.70
2019-02-24T08:15:31.077Z,16.67
2019-02-24T08:19:36.079Z,18.17
2019-02-24T08:23:41.158Z,19.23
2019-02-24T08:27:46.180Z,16.27
2019-02-24T08:31:51.230Z,17.40
2019-02-24T08:35:56.307Z,17.43
2019-02-24T08:40:01.308Z,17.43
2019-02-24T08:44:06.375Z,17.90
2019-02-24T08:48:11.418Z,19.67
2019-02-24T08:52:16.583Z,17.77
2019-02-24T08:56:22.359Z,18.67
2019-02-24T09:00:27.393Z,18.53
2019-02-24T09:04:32.404Z,17.77
2019-02-24T09:08:37.409Z,18.87
2019-02-24T09:12:42.379Z,20.57
2019-02-24T09:16:47.394Z,18.40
2019-02-24T09:20:52.405Z,16.80
2019-02-24T09:24:57.404Z,19.33
2019-02-24T09:29:02.472Z,19.17
2019-02-24T09:33:13.097Z,22.40
2019-02-24T09:37:18.715Z,17.70
2019-02-24T09:41:23.720Z,22.32
2019-02-24T09:45:28.742Z,15.53
2019-02-24T09:49:36.140Z,18.40
2019-02-24T09:53:41.537Z,16.00
2019-02-24T09:57:46.796Z,19.73
2019-02-24T10:01:52.246Z,19.80
2019-02-24T10:05:57.541Z,18.60
2019-02-24T10:10:02.826Z,21.70
2019-02-24T10:14:09.331Z,19.77
2019-02-24T10:18:14.824Z,22.93
2019-02-24T10:22:21.261Z,18.60
2019-02-24T10:26:27.472Z,12.93
2019-02-24T10:30:32.966Z,18.57
2019-02-24T10:34:38.280Z,14.13
2019-02-24T10:38:44.409Z,10.27
2019-02-24T10:42:51.479Z,13.63
2019-02-24T10:46:56.812Z,13.63
2019-02-24T10:51:02.239Z,18.00
2019-02-24T10:55:07.672Z,12.47
2019-02-24T10:59:12.969Z,14.57
2019-02-24T11:03:18.423Z,10.77
2019-02-24T11:07:23.701Z,11.97
2019-02-24T11:11:29.017Z,17.10
2019-02-24T11:15:35.789Z,9.30
2019-02-24T11:19:41.253Z,12.37
2019-02-24T11:23:46.535Z,14.38
2019-02-24T11:27:52.060Z,13.50
2019-02-24T11:31:57.998Z,11.50
2019-02-24T11:36:03.438Z,10.17
2019-02-24T11:40:16.429Z,13.73
2019-02-24T11:44:21.711Z,8.20
2019-02-24T11:48:26.972Z,8.93
2019-02-24T11:52:32.260Z,9.00
2019-02-24T11:56:37.546Z,7.63
2019-02-24T12:00:42.823Z,9.23
2019-02-24T12:04:48.117Z,8.83
2019-02-24T12:08:53.380Z,9.67
2019-02-24T12:12:59.284Z,8.43
2019-02-24T12:17:06.154Z,7.50
2019-02-24T12:21:11.636Z,9.13
2019-02-24T12:25:16.940Z,8.83
2019-02-24T12:29:22.219Z,6.03
2019-02-24T12:33:27.502Z,6.33
2019-02-24T12:37:32.789Z,7.97
2019-02-24T12:41:38.089Z,9.17
2019-02-24T12:45:43.399Z,11.80
2019-02-24T12:49:49.975Z,10.17
2019-02-24T12:53:55.348Z,9.30
2019-02-24T12:58:00.635Z,7.20
2019-02-24T13:02:06.266Z,10.60
2019-02-24T13:06:11.626Z,6.40
2019-02-24T13:10:17.639Z,7.63
2019-02-24T13:14:22.898Z,7.00
2019-02-24T13:18:28.192Z,8.67
2019-02-24T13:22:33.608Z,9.37
2019-02-24T13:26:38.977Z,11.17
2019-02-24T13:30:44.966Z,12.63
2019-02-24T13:34:50.339Z,12.57
2019-02-24T13:38:55.716Z,11.70
2019-02-24T13:43:02.087Z,13.67
2019-02-24T13:47:07.387Z,13.57
2019-02-24T13:51:12.689Z,11.90
2019-02-24T13:55:17.980Z,10.30
2019-02-24T13:59:23.239Z,10.33
2019-02-24T14:03:28.540Z,9.97
2019-02-24T14:07:33.840Z,12.10
2019-02-24T14:11:39.144Z,9.10
2019-02-24T14:15:46.344Z,10.67
2019-02-24T14:19:51.573Z,10.53
2019-02-24T14:23:57.926Z,8.67
2019-02-24T14:28:03.322Z,11.13
2019-02-24T14:32:08.599Z,10.20
2019-02-24T14:36:13.871Z,7.93
2019-02-24T14:40:20.126Z,9.43
2019-02-24T14:44:25.423Z,9.60
2019-02-24T14:48:30.704Z,10.13
2019-02-24T14:52:36.016Z,12.87
2019-02-24T14:56:41.300Z,9.73
2019-02-24T15:00:46.743Z,11.00
2019-02-24T15:04:52.080Z,9.93
2019-02-24T15:08:57.344Z,8.40
2019-02-24T15:13:02.625Z,7.10
2019-02-24T15:17:07.912Z,10.50
2019-02-24T15:21:13.200Z,10.80
2019-02-24T15:25:18.943Z,9.10
2019-02-24T15:29:24.204Z,6.53
2019-02-24T15:33:29.485Z,9.67
2019-02-24T15:37:34.815Z,11.10
2019-02-24T15:41:40.091Z,9.23
2019-02-24T15:45:45.347Z,9.10
2019-02-24T15:49:50.625Z,6.43
2019-02-24T15:53:55.922Z,8.73
2019-02-24T15:58:01.196Z,8.80
2019-02-24T16:02:06.516Z,8.00
2019-02-24T16:06:11.784Z,12.53
2019-02-24T16:10:19.375Z,12.87
2019-02-24T16:14:24.653Z,9.30
2019-02-24T16:18:29.928Z,7.83
2019-02-24T16:22:35.257Z,12.07
2019-02-24T16:26:40.532Z,14.40
2019-02-24T16:30:45.506Z,15.73
2019-02-24T16:34:50.576Z,10.83
2019-02-24T16:38:55.575Z,9.60
2019-02-24T16:43:00.581Z,12.67
2019-02-24T16:47:05.751Z,14.87
2019-02-24T16:51:10.852Z,14.97
2019-02-24T16:55:16.985Z,12.50
2019-02-24T16:59:22.596Z,17.47
2019-02-24T17:03:27.600Z,12.57
2019-02-24T17:07:32.640Z,12.20
2019-02-24T17:11:37.726Z,15.50
2019-02-24T17:15:44.498Z,14.97
2019-02-24T17:19:49.532Z,20.83
2019-02-24T17:23:55.573Z,20.53
2019-02-24T17:28:00.591Z,18.73
2019-02-24T17:32:05.603Z,16.30
2019-02-24T17:36:10.613Z,11.13
2019-02-24T17:40:23.130Z,15.00
2019-02-24T17:44:28.694Z,13.73
2019-02-24T17:48:33.746Z,17.00
2019-02-24T17:52:38.870Z,15.43
2019-02-24T17:56:44.989Z,16.33
2019-02-24T18:00:58.873Z,14.33
2019-02-24T18:05:04.843Z,16.70
2019-02-24T18:09:10.262Z,13.93
2019-02-24T18:13:15.885Z,18.10
2019-02-24T18:17:20.991Z,19.63
2019-02-24T18:21:25.980Z,15.73
2019-02-24T18:25:31.060Z,16.00
2019-02-24T18:29:36.303Z,16.10
2019-02-24T18:33:48.053Z,15.70
2019-02-24T18:37:47.949Z,23.80
2019-02-24T18:41:53.056Z,20.90
2019-02-24T18:45:58.248Z,26.43
2019-02-24T18:50:04.096Z,28.77
2019-02-24T18:54:09.400Z,31.60
2019-02-24T18:58:14.701Z,27.67
2019-02-24T19:02:19.804Z,28.67
2019-02-24T19:06:24.906Z,32.10
2019-02-24T19:10:29.912Z,25.40
2019-02-24T19:14:35.855Z,25.90
2019-02-24T19:18:42.101Z,25.73
2019-02-24T19:22:47.709Z,23.57
2019-02-24T19:26:54.900Z,27.63
2019-02-24T19:31:00.865Z,25.97
2019-02-24T19:35:09.064Z,23.80
2019-02-24T19:39:15.667Z,23.80
2019-02-24T19:43:22.902Z,26.73
2019-02-24T19:47:28.666Z,24.93
2019-02-24T19:51:34.493Z,22.47
2019-02-24T19:55:39.844Z,20.47
2019-02-24T19:59:45.640Z,25.83
2019-02-24T20:03:52.255Z,29.53
2019-02-24T20:07:58.160Z,28.27
2019-02-24T20:12:04.713Z,49.50
2019-02-24T20:16:10.450Z,24.07
2019-02-24T20:20:17.486Z,27.93
2019-02-24T20:24:22.962Z,23.50
2019-02-24T20:28:29.183Z,24.40
2019-02-24T20:32:35.191Z,30.43
2019-02-24T20:36:41.189Z,22.47
2019-02-24T20:40:47.213Z,24.80
2019-02-24T20:44:52.542Z,23.67
2019-02-24T20:48:58.400Z,18.70
2019-02-24T20:53:17.617Z,26.50
2019-02-24T20:57:23.610Z,25.63
2019-02-24T21:01:29.077Z,24.87
2019-02-24T21:05:34.923Z,28.63
2019-02-24T21:09:43.180Z,29.90
2019-02-24T21:13:57.827Z,25.01
2019-02-24T21:18:02.818Z,22.60
2019-02-24T21:22:08.799Z,26.00
2019-02-24T21:26:13.819Z,27.77
2019-02-24T21:30:19.272Z,26.20
2019-02-24T21:34:24.292Z,29.83
2019-02-24T21:38:29.280Z,26.20
2019-02-24T21:42:34.295Z,28.43
2019-02-24T21:46:39.319Z,23.07
2019-02-24T21:50:44.476Z,24.90
2019-02-24T21:54:49.495Z,30.33
2019-02-24T21:58:54.517Z,26.30
2019-02-24T22:02:59.565Z,27.60
2019-02-24T22:07:04.710Z,28.77
2019-02-24T22:11:09.727Z,25.20
2019-02-24T22:15:25.254Z,27.67
2019-02-24T22:19:30.276Z,35.77
2019-02-24T22:23:35.271Z,32.70
2019-02-24T22:27:40.290Z,25.77
2019-02-24T22:31:45.295Z,24.43
2019-02-24T22:35:50.307Z,26.87
2019-02-24T22:39:55.352Z,31.67
2019-02-24T22:44:01.316Z,27.97
2019-02-24T22:48:06.331Z,26.43
2019-02-24T22:52:11.348Z,23.67
2019-02-24T22:56:16.352Z,21.37
2019-02-24T23:00:52.390Z,22.63
2019-02-24T23:04:59.769Z,23.50
2019-02-24T23:09:08.273Z,27.90
2019-02-24T23:13:14.888Z,26.97
2019-02-24T23:17:20.136Z,28.50
2019-02-24T23:21:25.151Z,29.70
2019-02-24T23:25:30.168Z,30.73
2019-02-24T23:29:35.276Z,26.97
2019-02-24T23:33:40.564Z,32.23
2019-02-24T23:37:45.767Z,32.47
2019-02-24T23:41:50.780Z,24.77
2019-02-24T23:45:55.802Z,30.93
2019-02-24T23:50:00.830Z,23.10
2019-02-24T23:54:05.804Z,22.93
2019-02-24T23:58:10.820Z,21.23
